createdAt,value
2022-08-16T00:01:41.039Z,99748.06
2022-08-16T00:04:13.755Z,99751.32
2022-08-16T00:06:47.282Z,99752.70
2022-08-16T00:09:19.514Z,99759.44
2022-08-16T00:11:55.408Z,99760.29
2022-08-16T00:14:31.013Z,99760.86
2022-08-16T00:17:16.374Z,99763.80
2022-08-16T00:19:54.969Z,99757.71
2022-08-16T00:22:28.111Z,99756.20
2022-08-16T00:25:00.727Z,99753.88
2022-08-16T00:27:32.788Z,99746.88
2022-08-16T00:30:19.096Z,99742.27
2022-08-16T00:32:57.070Z,99738.61
2022-08-16T00:35:34.991Z,99737.64
2022-08-16T00:38:41.263Z,99718.82
2022-08-16T00:41:02.572Z,99734.34
2022-08-16T00:43:42.462Z,99722.91
2022-08-16T00:46:34.641Z,99746.78
2022-08-16T00:49:17.285Z,99758.31
2022-08-16T00:51:53.006Z,99761.86
2022-08-16T00:54:31.426Z,99764.77
2022-08-16T00:57:06.243Z,99770.52
2022-08-16T00:59:52.876Z,99770.64
2022-08-16T01:02:33.050Z,99771.23
2022-08-16T01:05:11.514Z,99771.96
2022-08-16T01:07:51.739Z,99773.12
2022-08-16T01:10:32.048Z,99775.27
2022-08-16T01:13:12.057Z,99781.31
2022-08-16T01:15:52.623Z,99785.27
2022-08-16T01:18:40.412Z,99777.68
2022-08-16T01:21:33.925Z,99775.73
2022-08-16T01:24:44.543Z,99773.16
2022-08-16T01:27:18.159Z,99775.75
2022-08-16T01:29:59.554Z,99762.90
2022-08-16T01:32:36.102Z,99764.15
2022-08-16T01:35:17.739Z,99763.27
2022-08-16T01:37:54.270Z,99765.23
2022-08-16T01:40:32.100Z,99764.13
2022-08-16T01:43:08.380Z,99767.42
2022-08-16T01:45:42.108Z,99774.80
2022-08-16T01:48:20.325Z,99774.44
2022-08-16T01:51:08.126Z,99768.80
2022-08-16T01:53:42.525Z,99773.20
2022-08-16T01:56:32.835Z,99770.23
2022-08-16T01:59:15.941Z,99773.10
2022-08-16T02:01:56.247Z,99767.33
2022-08-16T02:04:48.651Z,99768.09
2022-08-16T02:07:23.951Z,99767.50
2022-08-16T02:09:59.700Z,99750.95
2022-08-16T02:12:51.171Z,99770.70
2022-08-16T02:15:35.646Z,99768.45
2022-08-16T02:18:18.764Z,99772.48
2022-08-16T02:20:53.478Z,99767.34
2022-08-16T02:23:26.760Z,99769.23
2022-08-16T02:26:02.446Z,99767.36
2022-08-16T02:28:35.450Z,99762.08
2022-08-16T02:31:12.594Z,99747.89
2022-08-16T02:33:50.770Z,99765.95
2022-08-16T02:36:47.688Z,99771.14
2022-08-16T02:39:23.416Z,99753.48
2022-08-16T02:41:57.230Z,99765.54
2022-08-16T02:44:31.652Z,99762.77
2022-08-16T02:47:04.609Z,99757.39
2022-08-16T02:50:30.594Z,99752.85
2022-08-16T02:52:30.354Z,99752.48
2022-08-16T02:55:11.525Z,99749.98
2022-08-16T02:57:53.902Z,99756.11
2022-08-16T03:00:33.621Z,99761.26
2022-08-16T03:03:10.631Z,99762.86
2022-08-16T03:05:42.156Z,99766.48
2022-08-16T03:08:50.111Z,99766.86
2022-08-16T03:11:17.970Z,99779.59
2022-08-16T03:13:56.879Z,99779.85
2022-08-16T03:16:38.450Z,99778.19
2022-08-16T03:19:18.672Z,99783.80
2022-08-16T03:21:51.794Z,99780.52
2022-08-16T03:24:29.175Z,99773.70
2022-08-16T03:27:04.145Z,99769.17
2022-08-16T03:29:40.353Z,99771.13
2022-08-16T03:32:27.778Z,99758.31
2022-08-16T03:35:00.295Z,99769.33
2022-08-16T03:37:32.555Z,99776.16
2022-08-16T03:40:32.799Z,99784.84
2022-08-16T03:43:20.436Z,99792.67
2022-08-16T03:45:58.476Z,99795.92
2022-08-16T03:48:40.529Z,99792.15
2022-08-16T03:51:23.636Z,99797.64
2022-08-16T03:54:01.768Z,99809.08
2022-08-16T03:56:36.741Z,99818.64
2022-08-16T03:59:10.675Z,99817.66
2022-08-16T04:01:53.758Z,99820.59
2022-08-16T04:04:33.525Z,99823.73
2022-08-16T04:07:09.309Z,99825.69
2022-08-16T04:09:46.823Z,99815.92
2022-08-16T04:12:53.626Z,99834.41
2022-08-16T04:15:17.539Z,99840.29
2022-08-16T04:17:57.967Z,99842.83
2022-08-16T04:20:36.812Z,99846.43
2022-08-16T04:23:10.728Z,99857.75
2022-08-16T04:25:47.047Z,99855.92
2022-08-16T04:28:52.309Z,99850.42
2022-08-16T04:31:17.000Z,99868.63
2022-08-16T04:33:53.323Z,99870.02
2022-08-16T04:36:28.519Z,99879.17
2022-08-16T04:39:00.917Z,99882.06
2022-08-16T04:41:37.507Z,99880.67
2022-08-16T04:44:32.726Z,99866.15
2022-08-16T04:47:21.438Z,99877.46
2022-08-16T04:49:56.989Z,99880.98
2022-08-16T04:52:33.444Z,99883.85
2022-08-16T04:55:12.063Z,99881.80
2022-08-16T04:57:46.186Z,99878.36
2022-08-16T05:00:33.754Z,99884.84
2022-08-16T05:03:24.890Z,99891.26
2022-08-16T05:05:59.918Z,99886.41
2022-08-16T05:08:39.481Z,99878.78
2022-08-16T05:11:22.636Z,99892.36
2022-08-16T05:13:55.825Z,99894.41
2022-08-16T05:16:39.605Z,99893.27
2022-08-16T05:19:19.071Z,99896.40
2022-08-16T05:22:18.264Z,99899.95
2022-08-16T05:24:54.966Z,99867.13
2022-08-16T05:27:28.424Z,99898.77
2022-08-16T05:30:34.060Z,99905.30
2022-08-16T05:32:53.879Z,99907.51
2022-08-16T05:35:27.574Z,99904.38
2022-08-16T05:38:32.228Z,99901.73
2022-08-16T05:41:06.851Z,99905.41
2022-08-16T05:43:43.196Z,99901.89
2022-08-16T05:46:29.433Z,99906.23
2022-08-16T05:49:08.827Z,99907.70
2022-08-16T05:51:47.931Z,99906.42
2022-08-16T05:54:24.886Z,99911.83
2022-08-16T05:56:59.819Z,99914.98
2022-08-16T05:59:32.748Z,99910.48
2022-08-16T06:02:06.273Z,99907.64
2022-08-16T06:04:44.930Z,99912.88
2022-08-16T06:07:26.173Z,99914.85
2022-08-16T06:10:32.906Z,99889.02
2022-08-16T06:13:09.260Z,99909.60
2022-08-16T06:15:42.168Z,99912.79
2022-08-16T06:18:14.824Z,99899.74
2022-08-16T06:20:55.144Z,99918.01
2022-08-16T06:23:27.821Z,99921.36
2022-08-16T06:26:09.832Z,99925.91
2022-08-16T06:28:47.945Z,99914.14
2022-08-16T06:31:26.301Z,99925.70
2022-08-16T06:34:00.839Z,99923.57
2022-08-16T06:36:36.838Z,99912.77
2022-08-16T06:39:17.603Z,99930.88
2022-08-16T06:42:10.067Z,99934.63
2022-08-16T06:45:01.912Z,99940.94
2022-08-16T06:47:56.573Z,99947.13
2022-08-16T06:50:32.794Z,99946.52
2022-08-16T06:53:09.651Z,99947.59
2022-08-16T06:55:46.844Z,99934.08
2022-08-16T06:58:31.980Z,99948.04
2022-08-16T07:01:15.016Z,99950.65
2022-08-16T07:03:54.936Z,99952.55
2022-08-16T07:06:32.539Z,99953.80
2022-08-16T07:09:09.623Z,99958.27
2022-08-16T07:11:45.756Z,99956.56
2022-08-16T07:14:25.650Z,99954.34
2022-08-16T07:17:01.507Z,99957.33
2022-08-16T07:20:02.519Z,99959.52
2022-08-16T07:22:38.047Z,99954.69
2022-08-16T07:25:17.115Z,99959.02
2022-08-16T07:27:49.731Z,99960.54
2022-08-16T07:30:45.126Z,99961.95
2022-08-16T07:33:52.205Z,99965.45
2022-08-16T07:36:21.762Z,99965.89
2022-08-16T07:38:54.547Z,99960.34
2022-08-16T07:41:27.221Z,99954.20
2022-08-16T07:44:03.837Z,99958.19
2022-08-16T07:46:47.115Z,99956.58
2022-08-16T07:49:32.551Z,99954.94
2022-08-16T07:52:20.477Z,99954.98
2022-08-16T07:54:54.066Z,99961.39
2022-08-16T07:57:28.338Z,99958.80
2022-08-16T08:00:00.981Z,99948.55
2022-08-16T08:02:34.982Z,99966.79
2022-08-16T08:05:09.227Z,99966.77
2022-08-16T08:07:45.109Z,99967.79
2022-08-16T08:10:29.187Z,99957.67
2022-08-16T08:13:04.588Z,99971.61
2022-08-16T08:15:40.514Z,99973.32
2022-08-16T08:18:30.112Z,99974.91
2022-08-16T08:21:04.917Z,99978.98
2022-08-16T08:23:42.482Z,99976.92
2022-08-16T08:26:17.683Z,99981.77
2022-08-16T08:28:50.625Z,99986.49
2022-08-16T08:31:22.951Z,99988.02
2022-08-16T08:33:56.845Z,99988.52
2022-08-16T08:36:33.268Z,99994.66
2022-08-16T08:39:16.531Z,99989.08
2022-08-16T08:41:53.559Z,99997.86
2022-08-16T08:44:31.036Z,99995.13
2022-08-16T08:47:12.747Z,99999.94
2022-08-16T08:49:46.138Z,100005.89
2022-08-16T08:52:35.194Z,100005.48
2022-08-16T08:55:15.132Z,100002.95
2022-08-16T08:57:49.033Z,100002.56
2022-08-16T09:00:50.976Z,100002.41
2022-08-16T09:03:24.424Z,100003.74
2022-08-16T09:06:00.635Z,100008.98
2022-08-16T09:08:35.144Z,100008.89
2022-08-16T09:11:11.765Z,100012.80
2022-08-16T09:13:51.294Z,100024.14
2022-08-16T09:17:03.338Z,100022.40
2022-08-16T09:19:18.501Z,100025.77
2022-08-16T09:22:06.030Z,100026.48
2022-08-16T09:24:58.164Z,100025.67
2022-08-16T09:27:56.621Z,100032.41
2022-08-16T09:30:43.059Z,100026.94
2022-08-16T09:33:19.627Z,100034.69
2022-08-16T09:35:54.486Z,100035.28
2022-08-16T09:38:31.857Z,100033.69
2022-08-16T09:41:14.671Z,100037.83
2022-08-16T09:43:59.470Z,100033.35
2022-08-16T09:46:48.472Z,100032.59
2022-08-16T09:49:22.693Z,100031.66
2022-08-16T09:51:55.614Z,100035.59
2022-08-16T09:54:32.453Z,100033.45
2022-08-16T09:57:06.191Z,100033.77
2022-08-16T09:59:44.660Z,100032.64
2022-08-16T10:02:27.101Z,100034.08
2022-08-16T10:05:01.262Z,100027.95
2022-08-16T10:07:44.682Z,100033.64
2022-08-16T10:10:19.051Z,100033.80
2022-08-16T10:13:14.429Z,100033.84
2022-08-16T10:15:55.703Z,100029.24
2022-08-16T10:19:01.958Z,100032.82
2022-08-16T10:21:22.699Z,100036.50
2022-08-16T10:23:56.048Z,100031.79
2022-08-16T10:27:21.946Z,100031.47
2022-08-16T10:29:22.076Z,100032.27
2022-08-16T10:31:54.316Z,100027.64
2022-08-16T10:34:32.321Z,100035.66
2022-08-16T10:37:05.874Z,100038.31
2022-08-16T10:39:41.412Z,100033.08
2022-08-16T10:42:14.713Z,100018.65
2022-08-16T10:44:53.636Z,100034.55
2022-08-16T10:47:28.183Z,100040.23
2022-08-16T10:50:05.436Z,100039.98
2022-08-16T10:52:44.838Z,100037.05
2022-08-16T10:55:40.785Z,100036.95
2022-08-16T10:58:17.412Z,100040.55
2022-08-16T11:00:53.104Z,100039.33
2022-08-16T11:03:45.620Z,100041.16
2022-08-16T11:06:18.479Z,100040.22
2022-08-16T11:14:38.388Z,100037.26
2022-08-16T11:17:13.608Z,100037.56
2022-08-16T11:20:41.087Z,100042.09
2022-08-16T11:22:48.347Z,100032.27
2022-08-16T11:29:11.894Z,100042.73
2022-08-16T11:31:08.830Z,100049.50
2022-08-16T11:33:56.338Z,100042.96
2022-08-16T11:36:29.408Z,100043.09
2022-08-16T11:39:03.675Z,100038.94
2022-08-16T11:41:38.516Z,100035.09
2022-08-16T11:44:20.418Z,100030.75
2022-08-16T11:47:09.744Z,100023.27
2022-08-16T11:49:41.970Z,100022.48
2022-08-16T11:52:14.194Z,100013.41
2022-08-16T11:54:53.726Z,100018.63
2022-08-16T11:57:29.105Z,100019.00
2022-08-16T12:00:01.433Z,100017.23
2022-08-16T12:02:45.948Z,100017.70
2022-08-16T12:05:20.324Z,100010.36
2022-08-16T12:07:52.458Z,100008.63
2022-08-16T12:10:28.212Z,100009.81
2022-08-16T12:13:02.736Z,100008.77
2022-08-16T12:15:35.742Z,100007.34
2022-08-16T12:18:08.896Z,99986.95
2022-08-16T12:20:43.340Z,100001.48
2022-08-16T12:23:17.920Z,99998.97
2022-08-16T12:25:50.987Z,99997.61
2022-08-16T12:28:36.920Z,99992.61
2022-08-16T12:31:16.546Z,99992.61
2022-08-16T12:33:50.792Z,99991.80
2022-08-16T12:36:29.776Z,99986.05
2022-08-16T12:39:02.973Z,99994.44
2022-08-16T12:41:37.657Z,99994.39
2022-08-16T12:44:19.900Z,99995.27
2022-08-16T12:47:06.124Z,99991.77
2022-08-16T12:49:42.252Z,99994.44
2022-08-16T12:52:32.990Z,99992.98
2022-08-16T12:55:11.489Z,99989.00
2022-08-16T12:57:58.099Z,99990.72
2022-08-16T13:00:33.943Z,99969.19
2022-08-16T13:03:07.938Z,99980.95
2022-08-16T13:05:47.775Z,99974.04
2022-08-16T13:08:30.916Z,99975.34
2022-08-16T13:11:07.824Z,99979.25
2022-08-16T13:13:40.418Z,99973.22
2022-08-16T13:16:20.213Z,99976.30
2022-08-16T13:18:54.439Z,99977.69
2022-08-16T13:21:26.993Z,99974.22
2022-08-16T13:23:59.307Z,99969.54
2022-08-16T13:26:36.146Z,99967.09
2022-08-16T13:29:09.788Z,99971.41
2022-08-16T13:31:42.390Z,99966.81
2022-08-16T13:34:17.782Z,99964.58
2022-08-16T13:36:52.079Z,99962.80
2022-08-16T13:39:27.011Z,99967.88
2022-08-16T13:42:04.423Z,99969.86
2022-08-16T13:44:56.030Z,99961.91
2022-08-16T13:47:30.155Z,99965.29
2022-08-16T13:50:02.946Z,99959.41
2022-08-16T13:52:39.889Z,99962.65
2022-08-16T13:55:17.492Z,99960.91
2022-08-16T13:58:35.024Z,99960.40
2022-08-16T14:00:43.082Z,99962.53
2022-08-16T14:03:18.367Z,99961.61
2022-08-16T14:05:52.654Z,99945.73
2022-08-16T14:08:27.441Z,99957.30
2022-08-16T14:10:59.710Z,99952.22
2022-08-16T14:13:32.397Z,99950.41
2022-08-16T14:16:05.420Z,99951.73
2022-08-16T14:18:44.775Z,99950.41
2022-08-16T14:21:18.345Z,99949.09
2022-08-16T14:23:52.037Z,99949.62
2022-08-16T14:26:24.881Z,99950.33
2022-08-16T14:29:01.238Z,99950.59
2022-08-16T14:31:39.671Z,99955.80
2022-08-16T14:34:13.143Z,99960.45
2022-08-16T14:36:52.104Z,99960.29
2022-08-16T14:39:26.049Z,99959.89
2022-08-16T14:42:03.516Z,99958.10
2022-08-16T14:44:36.191Z,99961.96
2022-08-16T14:47:11.116Z,99962.23
2022-08-16T14:49:44.323Z,99958.96
2022-08-16T14:52:27.637Z,99958.41
2022-08-16T14:55:12.538Z,99957.52
2022-08-16T14:57:45.156Z,99952.59
2022-08-16T15:00:19.158Z,99945.36
2022-08-16T15:02:55.543Z,99947.98
2022-08-16T15:05:32.609Z,99941.75
2022-08-16T15:08:05.262Z,99949.77
2022-08-16T15:10:39.005Z,99944.71
2022-08-16T15:13:16.353Z,99946.59
2022-08-16T15:15:59.007Z,99944.38
2022-08-16T15:18:35.147Z,99945.79
2022-08-16T15:21:08.541Z,99947.96
2022-08-16T15:23:41.372Z,99945.66
2022-08-16T15:26:29.562Z,99934.45
2022-08-16T15:29:05.919Z,99948.93
2022-08-16T15:31:41.741Z,99945.11
2022-08-16T15:34:21.946Z,99949.21
2022-08-16T15:36:58.441Z,99950.77
2022-08-16T15:39:39.315Z,99953.69
2022-08-16T15:42:27.028Z,99951.33
2022-08-16T15:45:00.288Z,99956.54
2022-08-16T15:47:33.974Z,99954.16
2022-08-16T15:50:06.047Z,99960.52
2022-08-16T15:52:40.008Z,99964.34
2022-08-16T15:55:23.683Z,99966.24
2022-08-16T15:58:34.435Z,99965.19
2022-08-16T16:00:54.860Z,99969.55
2022-08-16T16:03:29.585Z,99968.91
2022-08-16T16:06:09.022Z,99970.86
2022-08-16T16:08:42.080Z,99967.61
2022-08-16T16:11:14.566Z,99973.60
2022-08-16T16:13:47.115Z,99974.56
2022-08-16T16:16:24.229Z,99966.08
2022-08-16T16:18:56.812Z,99971.63
2022-08-16T16:21:29.028Z,99972.31
2022-08-16T16:24:21.475Z,99974.33
2022-08-16T16:26:54.305Z,99977.78
2022-08-16T16:29:28.531Z,99976.27
2022-08-16T16:32:10.767Z,99974.17
2022-08-16T16:34:45.310Z,99976.98
2022-08-16T16:37:17.611Z,99973.50
2022-08-16T16:39:50.065Z,99971.58
2022-08-16T16:42:29.641Z,99973.41
2022-08-16T16:45:04.943Z,99974.00
2022-08-16T16:47:48.264Z,99971.13
2022-08-16T16:50:22.507Z,99971.66
2022-08-16T16:52:56.347Z,99978.89
2022-08-16T16:55:30.486Z,99974.56
2022-08-16T16:58:35.287Z,99973.51
2022-08-16T17:01:09.569Z,99975.70
2022-08-16T17:03:42.512Z,99976.20
2022-08-16T17:06:14.891Z,99975.84
2022-08-16T17:08:48.346Z,99976.54
2022-08-16T17:11:25.551Z,99962.14
2022-08-16T17:14:02.225Z,99967.77
2022-08-16T17:16:34.990Z,99986.91
2022-08-16T17:19:16.453Z,99986.96
2022-08-16T17:22:00.987Z,99984.62
2022-08-16T17:24:44.701Z,99990.58
2022-08-16T17:27:18.378Z,99975.27
2022-08-16T17:29:56.498Z,99990.30
2022-08-16T17:32:34.163Z,99995.73
2022-08-16T17:35:22.858Z,99989.64
2022-08-16T17:37:55.960Z,99995.21
2022-08-16T17:40:40.978Z,99991.67
2022-08-16T17:43:27.552Z,99993.94
2022-08-16T17:46:00.351Z,99994.91
2022-08-16T17:48:35.706Z,99994.34
2022-08-16T17:51:08.834Z,99995.73
2022-08-16T17:53:41.295Z,99999.02
2022-08-16T17:56:13.596Z,100002.23
2022-08-16T17:58:45.899Z,100004.02
2022-08-16T18:01:21.325Z,99996.52
2022-08-16T18:04:08.915Z,100008.06
2022-08-16T18:06:42.914Z,100010.84
2022-08-16T18:09:15.361Z,100011.10
2022-08-16T18:11:49.172Z,100016.52
2022-08-16T18:14:52.273Z,100017.84
2022-08-16T18:17:14.173Z,100022.98
2022-08-16T18:19:46.787Z,100027.23
2022-08-16T18:22:30.218Z,100027.42
2022-08-16T18:25:03.178Z,100035.10
2022-08-16T18:27:36.607Z,100016.20
2022-08-16T18:30:12.065Z,100037.45
2022-08-16T18:32:51.961Z,100041.05
2022-08-16T18:35:24.397Z,100039.95
2022-08-16T18:37:56.907Z,100029.52
2022-08-16T18:40:29.886Z,100040.91
2022-08-16T18:43:04.776Z,100041.24
2022-08-16T18:45:40.346Z,100045.24
2022-08-16T18:48:13.434Z,100045.83
2022-08-16T18:51:03.930Z,100048.14
2022-08-16T18:53:38.550Z,100047.86
2022-08-16T18:56:10.922Z,100044.48
2022-08-16T18:58:43.024Z,100049.41
2022-08-16T19:01:15.608Z,100050.35
2022-08-16T19:03:48.198Z,100053.73
2022-08-16T19:06:20.465Z,100047.55
2022-08-16T19:08:52.922Z,100046.54
2022-08-16T19:11:28.682Z,100048.59
2022-08-16T19:14:03.179Z,100047.85
2022-08-16T19:16:36.026Z,100051.74
2022-08-16T19:19:11.422Z,100054.98
2022-08-16T19:21:45.157Z,100055.41
2022-08-16T19:24:17.810Z,100058.54
2022-08-16T19:26:51.362Z,100061.02
2022-08-16T19:29:25.392Z,100062.48
2022-08-16T19:31:59.918Z,100064.76
2022-08-16T19:34:31.909Z,100065.80
2022-08-16T19:37:04.957Z,100070.30
2022-08-16T19:39:39.525Z,100057.44
2022-08-16T19:42:18.216Z,100078.91
2022-08-16T19:44:52.647Z,100078.84
2022-08-16T19:47:25.303Z,100078.11
2022-08-16T19:49:57.965Z,100083.34
2022-08-16T19:52:32.105Z,100081.54
2022-08-16T19:55:07.023Z,100086.42
2022-08-16T19:57:40.396Z,100092.83
2022-08-16T20:00:17.321Z,100087.65
2022-08-16T20:02:54.106Z,100090.99
2022-08-16T20:05:30.099Z,100087.52
2022-08-16T20:08:04.586Z,100092.63
2022-08-16T20:10:37.568Z,100090.63
2022-08-16T20:13:14.472Z,100097.21
2022-08-16T20:15:47.774Z,100087.15
2022-08-16T20:18:25.236Z,100098.80
2022-08-16T20:20:57.909Z,100096.39
2022-08-16T20:23:30.823Z,100101.66
2022-08-16T20:26:03.431Z,100091.07
2022-08-16T20:28:40.729Z,100103.61
2022-08-16T20:31:26.489Z,100103.06
2022-08-16T20:33:58.749Z,100107.10
2022-08-16T20:36:31.122Z,100104.63
2022-08-16T20:39:05.019Z,100104.74
2022-08-16T20:41:37.587Z,100109.48
2022-08-16T20:44:10.843Z,100110.87
2022-08-16T20:46:43.090Z,100110.35
2022-08-16T20:49:15.523Z,100115.02
2022-08-16T20:51:51.719Z,100114.73
2022-08-16T20:54:26.452Z,100120.98
2022-08-16T20:56:58.862Z,100098.90
2022-08-16T20:59:31.227Z,100119.25
2022-08-16T21:02:03.805Z,100122.48
2022-08-16T21:04:36.437Z,100122.93
2022-08-16T21:07:09.278Z,100123.19
2022-08-16T21:09:41.978Z,100124.86
2022-08-16T21:12:18.011Z,100107.42
2022-08-16T21:14:50.922Z,100120.35
2022-08-16T21:17:23.259Z,100118.24
2022-08-16T21:19:55.385Z,100120.80
2022-08-16T21:22:27.576Z,100120.65
2022-08-16T21:25:00.240Z,100105.05
2022-08-16T21:27:33.002Z,100101.46
2022-08-16T21:30:12.570Z,100118.33
2022-08-16T21:32:49.034Z,100120.89
2022-08-16T21:35:21.835Z,100123.84
2022-08-16T21:38:01.013Z,100120.70
2022-08-16T21:40:49.892Z,100121.80
2022-08-16T21:43:25.542Z,100122.54
2022-08-16T21:45:57.683Z,100126.15
2022-08-16T21:48:35.106Z,100131.65
2022-08-16T21:51:10.489Z,100133.11
2022-08-16T21:53:43.549Z,100134.84
2022-08-16T21:56:17.091Z,100129.95
2022-08-16T21:58:52.716Z,100135.61
2022-08-16T22:01:26.579Z,100134.57
2022-08-16T22:04:36.049Z,100130.87
2022-08-16T22:06:50.770Z,100128.23
2022-08-16T22:09:24.382Z,100130.67
2022-08-16T22:11:56.626Z,100133.14
2022-08-16T22:14:28.693Z,100134.66
2022-08-16T22:17:00.892Z,100135.67
2022-08-16T22:19:34.056Z,100136.96
2022-08-16T22:22:06.719Z,100138.97
2022-08-16T22:24:39.102Z,100143.42
2022-08-16T22:27:11.778Z,100121.67
2022-08-16T22:29:44.300Z,100141.30
2022-08-16T22:32:17.644Z,100141.56
2022-08-16T22:34:49.642Z,100139.08
2022-08-16T22:37:21.665Z,100141.19
2022-08-16T22:39:54.238Z,100143.90
2022-08-16T22:42:30.051Z,100145.66
2022-08-16T22:45:07.296Z,100146.39
2022-08-16T22:47:39.524Z,100144.67
2022-08-16T22:50:15.356Z,100146.00
2022-08-16T22:52:56.289Z,100143.78
2022-08-16T22:55:31.826Z,100140.81
2022-08-16T22:58:05.261Z,100141.45
2022-08-16T23:00:39.360Z,100141.85
2022-08-16T23:03:13.976Z,100135.56
2022-08-16T23:05:49.348Z,100137.63
2022-08-16T23:08:32.225Z,100132.89
2022-08-16T23:11:13.344Z,100138.35
2022-08-16T23:13:49.764Z,100134.02
2022-08-16T23:16:32.182Z,100131.52
2022-08-16T23:19:08.318Z,100133.98
2022-08-16T23:21:44.307Z,100130.55
2022-08-16T23:24:19.413Z,100132.21
2022-08-16T23:26:51.886Z,100129.61
2022-08-16T23:29:26.464Z,100131.48
2022-08-16T23:31:58.622Z,100134.92
2022-08-16T23:34:31.296Z,100138.64
2022-08-16T23:37:03.338Z,100137.98
2022-08-16T23:39:35.993Z,100137.83
2022-08-16T23:42:52.992Z,100137.58
2022-08-16T23:45:09.700Z,100134.50
2022-08-16T23:47:41.759Z,100133.83
2022-08-16T23:50:13.857Z,100136.95
2022-08-16T23:52:59.529Z,100135.40
2022-08-16T23:55:33.913Z,100134.51
2022-08-16T23:58:06.433Z,100134.69
